createdAt,value
2023-03-31T00:04:14.873Z,73.40
2023-03-31T00:09:18.893Z,72.79
2023-03-31T00:14:21.993Z,73.65
2023-03-31T00:19:29.059Z,72.53
2023-03-31T00:24:32.859Z,73.18
2023-03-31T00:29:35.972Z,72.46
2023-03-31T00:34:40.781Z,72.79
2023-03-31T00:39:43.592Z,72.54
2023-03-31T00:45:23.494Z,72.55
2023-03-31T00:50:30.618Z,73.20
2023-03-31T00:55:38.913Z,72.57
2023-03-31T01:00:42.201Z,73.55
2023-03-31T01:05:50.742Z,73.36
2023-03-31T01:10:56.600Z,73.62
2023-03-31T01:15:59.442Z,73.71
2023-03-31T01:21:34.200Z,73.52
2023-03-31T01:26:54.904Z,73.18
2023-03-31T01:32:45.737Z,73.33
2023-03-31T01:38:34.994Z,73.57
2023-03-31T01:43:45.948Z,73.14
2023-03-31T01:48:55.674Z,73.53
2023-03-31T01:54:05.984Z,73.90
2023-03-31T01:59:14.709Z,73.68
2023-03-31T02:04:22.257Z,73.67
2023-03-31T02:09:29.530Z,74.36
2023-03-31T02:14:35.674Z,74.18
2023-03-31T02:19:41.279Z,74.37
2023-03-31T02:24:46.669Z,74.37
2023-03-31T02:29:51.567Z,74.49
2023-03-31T02:34:55.619Z,74.58
2023-03-31T02:40:02.948Z,74.64
2023-03-31T02:45:29.505Z,74.24
2023-03-31T02:50:42.841Z,74.49
2023-03-31T02:56:00.798Z,73.35
2023-03-31T03:01:18.308Z,72.69
2023-03-31T03:06:37.617Z,72.18
2023-03-31T03:11:55.205Z,72.03
2023-03-31T03:17:05.319Z,71.84
2023-03-31T03:22:09.291Z,72.06
2023-03-31T03:27:12.175Z,73.02
2023-03-31T03:32:16.356Z,75.30
2023-03-31T03:37:19.185Z,77.29
2023-03-31T03:42:22.031Z,80.75
2023-03-31T03:47:26.299Z,82.02
2023-03-31T03:52:29.196Z,82.41
2023-03-31T03:57:32.015Z,83.70
2023-03-31T04:02:36.307Z,83.54
2023-03-31T04:07:39.274Z,84.31
2023-03-31T04:12:42.165Z,84.64
2023-03-31T04:17:51.106Z,85.10
2023-03-31T04:22:54.749Z,85.28
2023-03-31T04:27:57.612Z,85.79
2023-03-31T04:33:04.113Z,86.46
2023-03-31T04:38:06.898Z,86.38
2023-03-31T04:43:09.651Z,87.08
2023-03-31T04:48:14.068Z,87.29
2023-03-31T04:53:16.902Z,87.17
2023-03-31T04:58:19.697Z,87.36
2023-03-31T05:03:24.070Z,87.28
2023-03-31T05:08:27.587Z,87.51
2023-03-31T05:13:30.367Z,87.44
2023-03-31T05:18:34.632Z,87.19
2023-03-31T05:23:37.527Z,87.62
2023-03-31T05:28:40.784Z,87.32
2023-03-31T05:33:44.936Z,87.62
2023-03-31T05:38:47.796Z,87.92
2023-03-31T05:43:50.547Z,88.28
2023-03-31T05:48:55.079Z,88.24
2023-03-31T05:53:57.824Z,88.16
2023-03-31T05:59:01.133Z,87.51
2023-03-31T06:04:05.301Z,87.25
2023-03-31T06:09:08.136Z,87.37
2023-03-31T06:14:11.015Z,86.93
2023-03-31T06:19:15.468Z,86.79
2023-03-31T06:24:18.207Z,86.38
2023-03-31T06:29:21.152Z,86.15
2023-03-31T06:34:25.498Z,85.70
2023-03-31T06:39:28.795Z,85.43
2023-03-31T06:44:31.563Z,85.39
2023-03-31T06:49:35.746Z,84.55
2023-03-31T06:54:38.511Z,84.35
2023-03-31T06:59:41.587Z,83.50
2023-03-31T07:04:45.771Z,82.27
2023-03-31T07:09:48.525Z,81.84
2023-03-31T07:14:51.480Z,82.48
2023-03-31T07:19:55.754Z,83.27
2023-03-31T07:24:58.499Z,83.46
2023-03-31T07:30:01.386Z,83.12
2023-03-31T07:35:06.119Z,82.87
2023-03-31T07:40:11.249Z,81.83
2023-03-31T07:45:14.381Z,81.38
2023-03-31T07:50:19.225Z,80.81
2023-03-31T07:55:26.292Z,79.56
2023-03-31T08:00:29.224Z,79.40
2023-03-31T08:05:33.624Z,78.38
2023-03-31T08:10:36.450Z,78.28
2023-03-31T08:15:39.229Z,78.17
2023-03-31T08:20:43.333Z,78.63
2023-03-31T08:25:46.088Z,79.19
2023-03-31T08:30:48.852Z,80.71
2023-03-31T08:35:53.050Z,83.54
2023-03-31T08:41:00.876Z,84.57
2023-03-31T08:46:06.087Z,85.79
2023-03-31T08:51:18.101Z,86.13
2023-03-31T08:56:24.099Z,86.63
2023-03-31T09:01:47.700Z,87.80
2023-03-31T09:07:06.988Z,88.11
2023-03-31T09:12:16.132Z,88.47
2023-03-31T09:17:24.351Z,88.55
2023-03-31T09:22:32.583Z,90.23
2023-03-31T09:27:37.408Z,90.15
2023-03-31T09:32:41.050Z,90.02
2023-03-31T09:37:45.631Z,88.40
2023-03-31T09:42:52.318Z,90.83
2023-03-31T09:47:57.994Z,89.79
2023-03-31T09:53:05.397Z,89.63
2023-03-31T09:58:12.933Z,90.36
2023-03-31T10:03:15.763Z,88.69
2023-03-31T10:08:27.224Z,90.42
2023-03-31T10:13:36.743Z,89.36
2023-03-31T10:18:41.877Z,88.68
2023-03-31T10:23:48.820Z,88.41
2023-03-31T10:28:55.152Z,88.73
2023-03-31T10:33:59.583Z,88.45
2023-03-31T10:39:07.649Z,87.90
2023-03-31T10:44:32.196Z,87.80
2023-03-31T10:49:40.512Z,87.12
2023-03-31T10:54:50.268Z,86.27
2023-03-31T11:00:09.007Z,85.94
2023-03-31T11:05:16.466Z,84.31
2023-03-31T11:10:36.434Z,83.79
2023-03-31T11:15:43.952Z,82.53
2023-03-31T11:20:57.681Z,82.20
2023-03-31T11:26:06.892Z,79.75
2023-03-31T11:31:28.597Z,79.13
2023-03-31T11:36:53.600Z,80.46
2023-03-31T11:42:01.332Z,80.87
2023-03-31T11:47:08.899Z,80.07
2023-03-31T11:52:17.175Z,80.38
2023-03-31T11:57:26.213Z,79.62
2023-03-31T12:02:40.133Z,80.22
2023-03-31T12:07:49.197Z,78.54
2023-03-31T12:12:57.247Z,77.79
2023-03-31T12:18:04.097Z,79.29
2023-03-31T12:23:14.841Z,81.03
2023-03-31T12:28:20.667Z,82.10
2023-03-31T12:33:27.886Z,80.91
2023-03-31T12:38:43.750Z,78.67
2023-03-31T12:44:06.855Z,76.85
2023-03-31T12:49:28.581Z,74.35
2023-03-31T12:54:58.650Z,73.34
2023-03-31T13:00:21.976Z,71.14
2023-03-31T13:05:50.331Z,72.85
2023-03-31T13:10:58.695Z,68.89
2023-03-31T13:16:03.741Z,67.71
2023-03-31T13:21:07.900Z,68.74
2023-03-31T13:26:37.215Z,70.37
2023-03-31T13:32:17.502Z,71.64
2023-03-31T13:37:44.941Z,75.51
2023-03-31T13:43:14.760Z,80.46
2023-03-31T13:48:32.038Z,81.11
2023-03-31T13:53:55.129Z,81.81
2023-03-31T13:59:31.786Z,81.75
2023-03-31T14:05:05.317Z,79.32
2023-03-31T14:10:23.646Z,77.76
2023-03-31T14:15:26.397Z,76.22
2023-03-31T14:20:36.982Z,75.67
2023-03-31T14:25:50.174Z,75.97
2023-03-31T14:31:04.782Z,73.85
2023-03-31T14:36:15.923Z,74.38
2023-03-31T14:41:29.938Z,73.22
2023-03-31T14:46:37.553Z,74.38
2023-03-31T14:51:46.769Z,74.13
2023-03-31T14:56:55.116Z,75.15
2023-03-31T15:02:00.664Z,74.48
2023-03-31T15:07:05.896Z,74.36
2023-03-31T15:12:14.859Z,73.81
2023-03-31T15:17:22.791Z,74.28
2023-03-31T15:22:27.623Z,74.98
2023-03-31T15:27:37.855Z,74.58
2023-03-31T15:32:41.880Z,74.67
2023-03-31T15:37:47.424Z,74.56
2023-03-31T15:43:06.547Z,74.84
2023-03-31T15:48:22.922Z,74.48
2023-03-31T15:53:32.583Z,73.85
2023-03-31T15:58:56.736Z,74.20
2023-03-31T16:04:00.531Z,74.78
2023-03-31T16:09:08.080Z,74.33
2023-03-31T16:14:20.810Z,74.55
2023-03-31T16:19:24.736Z,76.32
2023-03-31T16:24:31.894Z,74.51
2023-03-31T16:29:37.773Z,74.79
2023-03-31T16:34:58.850Z,74.26
2023-03-31T16:40:01.885Z,74.36
2023-03-31T16:50:15.257Z,76.94
2023-03-31T16:55:18.199Z,75.64
2023-03-31T17:00:22.680Z,76.12
2023-03-31T17:05:26.375Z,76.35
2023-03-31T17:10:29.034Z,76.08
2023-03-31T17:15:35.018Z,78.03
2023-03-31T17:20:38.058Z,82.67
2023-03-31T17:25:40.945Z,84.80
2023-03-31T17:30:47.784Z,90.39
2023-03-31T17:35:50.624Z,88.01
2023-03-31T17:40:54.520Z,88.91
2023-03-31T17:46:04.161Z,87.85
2023-03-31T17:51:07.684Z,87.37
2023-03-31T17:56:10.450Z,86.94
2023-03-31T18:01:14.586Z,85.53
2023-03-31T18:06:17.726Z,83.98
2023-03-31T18:11:20.543Z,83.01
2023-03-31T18:16:24.803Z,82.05
2023-03-31T18:21:27.651Z,81.10
2023-03-31T18:26:30.650Z,80.13
2023-03-31T18:31:34.996Z,79.77
2023-03-31T18:36:38.000Z,79.14
2023-03-31T18:41:45.666Z,79.25
2023-03-31T18:46:49.879Z,80.34
2023-03-31T18:51:53.640Z,81.26
2023-03-31T18:56:56.563Z,81.38
2023-03-31T19:02:01.025Z,80.86
2023-03-31T19:07:03.940Z,80.51
2023-03-31T19:12:07.527Z,79.25
2023-03-31T19:17:12.407Z,79.71
2023-03-31T19:22:15.480Z,79.76
2023-03-31T19:27:18.279Z,79.71
2023-03-31T19:32:22.407Z,80.48
2023-03-31T19:37:25.705Z,80.97
2023-03-31T19:42:28.463Z,81.36
2023-03-31T19:47:32.572Z,81.31
2023-03-31T19:52:36.533Z,81.48
2023-03-31T19:57:39.304Z,81.38
2023-03-31T20:02:43.672Z,81.60
2023-03-31T20:07:46.558Z,81.71
2023-03-31T20:12:51.562Z,81.99
2023-03-31T20:17:56.959Z,81.70
2023-03-31T20:23:00.195Z,82.44
2023-03-31T20:28:03.012Z,83.12
2023-03-31T20:33:07.406Z,83.75
2023-03-31T20:38:10.198Z,84.46
2023-03-31T20:43:13.116Z,85.54
2023-03-31T20:48:17.735Z,85.69
2023-03-31T20:53:20.673Z,85.77
2023-03-31T20:58:23.476Z,85.16
2023-03-31T21:03:27.661Z,85.68
2023-03-31T21:08:30.519Z,85.21
2023-03-31T21:13:33.468Z,84.98
2023-03-31T21:18:37.656Z,85.36
2023-03-31T21:23:41.015Z,85.84
2023-03-31T21:28:44.508Z,85.77
2023-03-31T21:33:48.741Z,86.43
2023-03-31T21:38:54.075Z,86.38
2023-03-31T21:43:59.715Z,87.38
2023-03-31T21:49:05.801Z,88.90
2023-03-31T21:54:08.717Z,88.12
2023-03-31T21:59:11.535Z,88.23
2023-03-31T22:04:15.766Z,87.96
2023-03-31T22:09:18.694Z,88.61
2023-03-31T22:14:21.586Z,87.98
2023-03-31T22:19:25.669Z,87.99
2023-03-31T22:24:28.435Z,87.50
2023-03-31T22:29:31.322Z,87.61
2023-03-31T22:34:35.451Z,87.59
2023-03-31T22:39:38.197Z,88.17
2023-03-31T22:44:41.261Z,88.57
2023-03-31T22:49:45.814Z,88.39
2023-03-31T22:54:48.560Z,89.71
2023-03-31T22:59:51.531Z,89.79
2023-03-31T23:04:56.022Z,89.40
2023-03-31T23:09:58.797Z,89.84
2023-03-31T23:15:02.270Z,90.28
2023-03-31T23:20:07.902Z,90.25
2023-03-31T23:25:10.815Z,90.68
2023-03-31T23:30:15.059Z,92.64
2023-03-31T23:35:19.305Z,91.48
2023-03-31T23:40:22.166Z,89.10
2023-03-31T23:45:24.971Z,90.42
2023-03-31T23:50:29.181Z,89.08
2023-03-31T23:55:32.365Z,89.12
